createdAt,value
2022-10-14T00:02:24.069Z,5.60
2022-10-14T00:04:51.049Z,6.05
2022-10-14T00:07:17.735Z,5.50
2022-10-14T00:09:44.472Z,7.55
2022-10-14T00:12:11.267Z,7.15
2022-10-14T00:14:39.615Z,5.45
2022-10-14T00:17:06.389Z,5.75
2022-10-14T00:19:33.333Z,5.85
2022-10-14T00:22:00.031Z,5.25
2022-10-14T00:24:26.829Z,4.43
2022-10-14T00:26:53.567Z,6.35
2022-10-14T00:29:20.415Z,7.00
2022-10-14T00:31:47.899Z,6.57
2022-10-14T00:34:16.217Z,6.65
2022-10-14T00:36:43.907Z,8.35
2022-10-14T00:39:11.045Z,6.95
2022-10-14T00:41:38.066Z,6.28
2022-10-14T00:44:06.479Z,7.25
2022-10-14T00:46:36.194Z,6.65
2022-10-14T00:49:43.463Z,7.32
2022-10-14T00:52:19.358Z,7.10
2022-10-14T00:55:12.929Z,7.10
2022-10-14T00:57:39.776Z,6.45
2022-10-14T01:00:19.443Z,7.07
2022-10-14T01:02:48.098Z,6.00
2022-10-14T01:05:17.099Z,6.75
2022-10-14T01:07:54.532Z,6.43
2022-10-14T01:10:57.318Z,6.78
2022-10-14T01:13:33.832Z,6.22
2022-10-14T01:16:06.634Z,6.30
2022-10-14T01:18:55.599Z,8.00
2022-10-14T01:21:31.068Z,5.70
2022-10-14T01:24:05.627Z,6.60
2022-10-14T01:26:50.944Z,6.03
2022-10-14T01:29:26.648Z,5.75
2022-10-14T01:32:10.829Z,6.00
2022-10-14T01:34:45.228Z,6.72
2022-10-14T01:37:17.952Z,6.05
2022-10-14T01:39:56.821Z,6.70
2022-10-14T01:42:28.457Z,5.43
2022-10-14T01:45:09.192Z,6.28
2022-10-14T01:47:38.666Z,6.45
2022-10-14T01:50:13.109Z,6.68
2022-10-14T01:52:48.677Z,6.15
2022-10-14T01:55:20.320Z,5.72
2022-10-14T01:57:51.105Z,6.00
2022-10-14T02:00:18.023Z,5.75
2022-10-14T02:02:44.799Z,6.03
2022-10-14T02:05:41.379Z,7.07
2022-10-14T02:08:19.891Z,6.38
2022-10-14T02:11:05.407Z,5.88
2022-10-14T02:13:56.460Z,5.47
2022-10-14T02:16:48.587Z,4.88
2022-10-14T02:19:18.727Z,5.30
2022-10-14T02:22:02.417Z,5.47
2022-10-14T02:24:34.340Z,6.20
2022-10-14T02:27:07.130Z,4.78
2022-10-14T02:29:36.427Z,6.47
2022-10-14T02:32:06.774Z,5.65
2022-10-14T02:34:39.601Z,6.00
2022-10-14T02:37:07.591Z,4.63
2022-10-14T02:39:42.515Z,5.43
2022-10-14T02:42:09.254Z,3.72
2022-10-14T02:44:36.053Z,4.60
2022-10-14T02:47:02.984Z,5.38
2022-10-14T02:49:29.835Z,4.30
2022-10-14T02:51:56.540Z,4.57
2022-10-14T02:54:23.332Z,5.75
2022-10-14T02:56:50.022Z,5.10
2022-10-14T02:59:16.699Z,5.20
2022-10-14T03:01:43.603Z,5.38
2022-10-14T03:04:10.287Z,5.70
2022-10-14T03:06:36.985Z,4.90
2022-10-14T03:09:03.912Z,6.47
2022-10-14T03:11:30.596Z,6.07
2022-10-14T03:13:57.264Z,5.85
2022-10-14T03:16:24.069Z,5.43
2022-10-14T03:18:50.809Z,5.43
2022-10-14T03:21:17.485Z,5.30
2022-10-14T03:23:44.429Z,5.40
2022-10-14T03:26:14.032Z,6.47
2022-10-14T03:28:41.098Z,6.20
2022-10-14T03:31:08.127Z,5.57
2022-10-14T03:33:34.852Z,5.93
2022-10-14T03:36:01.696Z,6.57
2022-10-14T03:38:28.617Z,5.53
2022-10-14T03:40:55.344Z,6.90
2022-10-14T03:43:22.122Z,6.18
2022-10-14T03:45:48.860Z,6.28
2022-10-14T03:48:15.565Z,6.97
2022-10-14T03:50:42.300Z,5.15
2022-10-14T03:53:09.148Z,6.53
2022-10-14T03:55:36.024Z,6.00
2022-10-14T03:58:02.816Z,6.18
2022-10-14T04:00:29.911Z,5.82
2022-10-14T04:02:56.672Z,6.63
2022-10-14T04:05:23.433Z,6.03
2022-10-14T04:07:50.501Z,6.53
2022-10-14T04:10:17.425Z,5.82
2022-10-14T04:12:44.147Z,5.95
2022-10-14T04:15:11.118Z,5.85
2022-10-14T04:17:37.824Z,4.50
2022-10-14T04:20:05.168Z,4.78
2022-10-14T04:22:33.481Z,5.82
2022-10-14T04:25:11.588Z,4.88
2022-10-14T04:27:38.488Z,7.10
2022-10-14T04:30:06.661Z,4.97
2022-10-14T04:32:33.381Z,5.68
2022-10-14T04:35:00.232Z,5.53
2022-10-14T04:37:26.950Z,6.03
2022-10-14T04:39:53.709Z,5.82
2022-10-14T04:42:20.890Z,5.18
2022-10-14T04:44:47.811Z,4.22
2022-10-14T04:47:14.509Z,5.55
2022-10-14T04:49:41.389Z,4.80
2022-10-14T04:52:08.155Z,4.00
2022-10-14T04:54:34.825Z,4.50
2022-10-14T04:57:01.759Z,3.92
2022-10-14T04:59:28.449Z,3.67
2022-10-14T05:01:55.174Z,3.90
2022-10-14T05:04:22.257Z,4.75
2022-10-14T05:06:49.216Z,4.25
2022-10-14T05:09:16.043Z,4.32
2022-10-14T05:11:42.836Z,4.38
2022-10-14T05:14:09.716Z,9.32
2022-10-14T05:16:36.920Z,12.55
2022-10-14T05:19:03.804Z,12.00
2022-10-14T05:21:30.494Z,5.93
2022-10-14T05:23:57.206Z,4.22
2022-10-14T05:26:24.057Z,3.25
2022-10-14T05:28:52.624Z,3.30
2022-10-14T05:31:19.407Z,3.28
2022-10-14T05:33:46.245Z,3.65
2022-10-14T05:36:12.929Z,4.40
2022-10-14T05:38:39.632Z,3.42
2022-10-14T05:41:06.525Z,3.80
2022-10-14T05:43:33.295Z,3.53
2022-10-14T05:46:01.074Z,3.42
2022-10-14T05:48:28.017Z,3.70
2022-10-14T05:50:54.717Z,3.78
2022-10-14T05:53:21.472Z,4.45
2022-10-14T05:55:48.676Z,4.28
2022-10-14T05:58:15.753Z,4.68
2022-10-14T06:00:42.513Z,4.28
2022-10-14T06:03:12.477Z,4.45
2022-10-14T06:08:06.253Z,3.88
2022-10-14T06:10:33.224Z,4.65
2022-10-14T06:12:59.904Z,4.18
2022-10-14T06:15:28.434Z,3.70
2022-10-14T06:17:55.319Z,3.88
2022-10-14T06:20:22.167Z,3.78
2022-10-14T06:22:48.851Z,3.45
2022-10-14T06:25:15.896Z,3.05
2022-10-14T06:27:42.721Z,4.10
2022-10-14T06:30:10.276Z,4.55
2022-10-14T06:32:37.103Z,4.25
2022-10-14T06:35:04.572Z,3.35
2022-10-14T06:37:31.298Z,3.88
2022-10-14T06:39:58.056Z,5.88
2022-10-14T06:42:25.181Z,4.35
2022-10-14T06:44:52.235Z,4.20
2022-10-14T06:47:19.264Z,4.75
2022-10-14T06:49:45.963Z,4.07
2022-10-14T06:52:12.729Z,4.82
2022-10-14T06:54:40.999Z,4.90
2022-10-14T06:57:09.413Z,4.72
2022-10-14T06:59:36.117Z,5.07
2022-10-14T07:02:02.985Z,5.10
2022-10-14T07:04:29.803Z,4.72
2022-10-14T07:06:58.479Z,5.20
2022-10-14T07:09:25.493Z,5.15
2022-10-14T07:11:52.208Z,5.65
2022-10-14T07:14:18.981Z,4.97
2022-10-14T07:16:46.319Z,7.85
2022-10-14T07:19:13.275Z,4.72
2022-10-14T07:21:40.088Z,5.85
2022-10-14T07:24:07.149Z,5.75
2022-10-14T07:26:33.876Z,5.90
2022-10-14T07:29:01.153Z,5.10
2022-10-14T07:31:28.205Z,5.07
2022-10-14T07:33:54.923Z,5.10
2022-10-14T07:36:22.762Z,5.85
2022-10-14T07:38:50.256Z,4.53
2022-10-14T07:41:20.859Z,5.95
2022-10-14T07:43:50.235Z,5.45
2022-10-14T07:46:28.562Z,5.32
2022-10-14T07:49:09.051Z,5.85
2022-10-14T07:51:36.586Z,5.25
2022-10-14T07:54:05.435Z,5.13
2022-10-14T07:56:32.358Z,5.53
2022-10-14T07:58:59.269Z,5.20
2022-10-14T08:01:26.002Z,4.63
2022-10-14T08:03:53.562Z,4.57
2022-10-14T08:06:20.394Z,5.55
2022-10-14T08:08:47.825Z,5.10
2022-10-14T08:11:25.842Z,5.30
2022-10-14T08:13:54.167Z,4.70
2022-10-14T08:16:30.225Z,5.65
2022-10-14T08:18:59.757Z,6.32
2022-10-14T08:21:26.636Z,7.32
2022-10-14T08:23:55.213Z,8.13
2022-10-14T08:26:27.165Z,7.00
2022-10-14T08:28:54.143Z,7.57
2022-10-14T08:31:21.788Z,8.98
2022-10-14T08:33:49.478Z,7.65
2022-10-14T08:36:18.275Z,6.57
2022-10-14T08:38:46.534Z,7.05
2022-10-14T08:41:13.166Z,7.45
2022-10-14T08:44:08.192Z,8.43
2022-10-14T08:46:51.090Z,7.72
2022-10-14T08:49:31.019Z,8.18
2022-10-14T08:52:19.264Z,8.43
2022-10-14T08:54:55.870Z,8.05
2022-10-14T08:57:27.216Z,7.65
2022-10-14T08:59:54.630Z,7.60
2022-10-14T09:02:50.951Z,7.13
2022-10-14T09:05:21.989Z,7.13
2022-10-14T09:10:34.949Z,21.65
2022-10-14T09:13:32.700Z,53.85
2022-10-14T09:16:33.232Z,18.27
2022-10-14T09:19:03.037Z,15.40
2022-10-14T09:24:26.655Z,42.47
2022-10-14T09:27:01.107Z,28.95
2022-10-14T09:29:43.348Z,25.80
2022-10-14T09:32:15.773Z,13.85
2022-10-14T09:34:47.903Z,15.20
2022-10-14T09:37:34.068Z,12.85
2022-10-14T09:40:09.945Z,9.43
2022-10-14T09:43:01.838Z,6.95
2022-10-14T09:45:46.054Z,6.20
2022-10-14T09:48:22.093Z,7.47
2022-10-14T09:50:52.114Z,6.10
2022-10-14T09:53:49.216Z,5.55
2022-10-14T09:56:18.913Z,4.70
2022-10-14T09:58:55.436Z,4.38
2022-10-14T10:01:25.395Z,4.95
2022-10-14T10:03:53.446Z,3.90
2022-10-14T10:06:23.699Z,4.70
2022-10-14T10:08:53.559Z,4.72
2022-10-14T10:11:40.641Z,4.63
2022-10-14T10:14:16.943Z,4.47
2022-10-14T10:16:43.872Z,4.25
2022-10-14T10:19:32.580Z,3.53
2022-10-14T10:25:10.265Z,3.80
2022-10-14T10:27:49.546Z,3.58
2022-10-14T10:30:22.119Z,3.45
2022-10-14T10:33:00.142Z,3.40
2022-10-14T10:35:49.049Z,4.05
2022-10-14T10:38:21.992Z,4.43
2022-10-14T10:41:12.580Z,3.80
2022-10-14T10:43:54.407Z,3.50
2022-10-14T10:46:51.850Z,3.85
2022-10-14T10:49:42.150Z,3.28
2022-10-14T10:52:16.160Z,4.03
2022-10-14T10:55:11.761Z,3.45
2022-10-14T10:58:09.852Z,2.80
2022-10-14T11:00:52.892Z,2.55
2022-10-14T11:03:31.707Z,2.88
2022-10-14T11:06:50.112Z,1.85
2022-10-14T11:09:53.173Z,2.03
2022-10-14T11:12:34.680Z,2.35
2022-10-14T11:15:19.915Z,2.28
2022-10-14T11:18:07.440Z,2.08
2022-10-14T11:20:52.363Z,1.50
2022-10-14T11:23:38.258Z,1.92
2022-10-14T11:26:14.067Z,1.85
2022-10-14T11:28:57.030Z,2.60
2022-10-14T11:31:29.597Z,1.95
2022-10-14T11:34:11.397Z,1.92
2022-10-14T11:36:50.201Z,3.08
2022-10-14T11:39:35.555Z,2.00
2022-10-14T11:42:21.145Z,2.53
2022-10-14T11:44:59.022Z,2.55
2022-10-14T11:47:32.017Z,2.58
2022-10-14T11:50:19.066Z,2.25
2022-10-14T11:53:06.081Z,2.20
2022-10-14T11:55:39.542Z,2.63
2022-10-14T11:58:20.542Z,2.88
2022-10-14T12:00:53.873Z,2.70
2022-10-14T12:03:26.813Z,2.90
2022-10-14T12:06:04.378Z,3.67
2022-10-14T12:08:33.264Z,3.55
2022-10-14T12:11:18.559Z,3.65
2022-10-14T12:13:52.617Z,3.90
2022-10-14T12:16:22.577Z,4.80
2022-10-14T12:18:53.611Z,3.67
2022-10-14T12:21:32.280Z,4.53
2022-10-14T12:23:59.042Z,4.18
2022-10-14T12:26:25.843Z,4.15
2022-10-14T12:28:54.554Z,4.32
2022-10-14T12:31:28.948Z,4.75
2022-10-14T12:34:10.860Z,4.53
2022-10-14T12:36:39.112Z,4.95
2022-10-14T12:39:18.073Z,5.28
2022-10-14T12:41:55.645Z,5.40
2022-10-14T12:44:25.961Z,4.75
2022-10-14T12:46:53.971Z,4.15
2022-10-14T12:49:34.086Z,4.30
2022-10-14T12:52:04.841Z,5.03
2022-10-14T12:54:33.079Z,3.88
2022-10-14T12:57:06.307Z,3.63
2022-10-14T12:59:39.144Z,2.85
2022-10-14T13:02:57.313Z,2.72
2022-10-14T13:05:33.785Z,2.78
2022-10-14T13:08:16.189Z,3.10
2022-10-14T13:10:47.347Z,2.33
2022-10-14T13:13:39.117Z,2.70
2022-10-14T13:16:09.772Z,2.15
2022-10-14T13:18:49.900Z,2.53
2022-10-14T13:21:34.559Z,2.42
2022-10-14T13:24:18.061Z,2.05
2022-10-14T13:26:53.674Z,1.67
2022-10-14T13:29:20.480Z,1.55
2022-10-14T13:32:08.001Z,1.77
2022-10-14T13:35:06.589Z,1.30
2022-10-14T13:37:38.788Z,1.50
2022-10-14T13:40:21.060Z,1.48
2022-10-14T13:42:52.314Z,1.50
2022-10-14T13:45:22.411Z,1.00
2022-10-14T13:47:50.136Z,1.15
2022-10-14T13:50:23.905Z,1.10
2022-10-14T13:53:00.135Z,1.40
2022-10-14T13:55:27.597Z,0.80
2022-10-14T13:58:13.665Z,0.80
2022-10-14T14:01:00.636Z,1.20
2022-10-14T14:03:38.827Z,1.00
2022-10-14T14:06:17.315Z,1.75
2022-10-14T14:08:48.862Z,1.13
2022-10-14T14:11:37.679Z,0.93
2022-10-14T14:14:16.529Z,0.87
2022-10-14T14:16:55.031Z,1.23
2022-10-14T14:19:26.203Z,1.20
2022-10-14T14:22:27.376Z,1.10
2022-10-14T14:25:33.435Z,1.30
2022-10-14T14:28:06.143Z,1.02
2022-10-14T14:30:35.798Z,1.63
2022-10-14T14:35:35.122Z,1.80
2022-10-14T14:38:02.134Z,1.52
2022-10-14T14:40:31.220Z,1.85
2022-10-14T14:43:02.997Z,1.23
2022-10-14T14:45:35.264Z,1.13
2022-10-14T14:48:05.037Z,1.33
2022-10-14T14:50:38.271Z,1.17
2022-10-14T14:53:11.972Z,1.20
2022-10-14T14:55:54.187Z,1.05
2022-10-14T14:58:24.089Z,1.20
2022-10-14T15:00:51.842Z,1.10
2022-10-14T15:03:18.856Z,0.90
2022-10-14T15:05:55.488Z,1.08
2022-10-14T15:08:25.149Z,0.82
2022-10-14T15:13:45.249Z,1.40
2022-10-14T15:16:12.287Z,1.33
2022-10-14T15:18:41.220Z,1.25
2022-10-14T15:21:20.390Z,1.40
2022-10-14T15:23:50.071Z,1.50
2022-10-14T15:29:08.367Z,1.65
2022-10-14T15:31:37.109Z,1.15
2022-10-14T15:34:04.885Z,1.42
2022-10-14T15:36:35.058Z,1.13
2022-10-14T15:39:02.828Z,1.77
2022-10-14T15:41:29.597Z,1.20
2022-10-14T15:43:56.446Z,1.30
2022-10-14T15:46:41.952Z,0.90
2022-10-14T15:49:18.649Z,1.42
2022-10-14T15:51:45.443Z,2.22
2022-10-14T15:54:12.747Z,1.50
2022-10-14T15:56:39.546Z,1.48
2022-10-14T15:59:06.404Z,1.38
2022-10-14T16:01:36.736Z,1.58
2022-10-14T16:04:04.068Z,1.50
2022-10-14T16:06:32.839Z,1.42
2022-10-14T16:08:59.567Z,1.23
2022-10-14T16:11:28.321Z,1.45
2022-10-14T16:13:55.407Z,1.30
2022-10-14T16:16:32.396Z,1.20
2022-10-14T16:19:02.679Z,1.40
2022-10-14T16:21:33.407Z,1.48
2022-10-14T16:24:02.481Z,1.60
2022-10-14T16:26:30.120Z,2.40
2022-10-14T16:28:57.319Z,1.73
2022-10-14T16:31:24.152Z,0.65
2022-10-14T16:33:51.638Z,1.30
2022-10-14T16:36:18.489Z,1.40
2022-10-14T16:38:45.465Z,1.60
2022-10-14T16:41:12.689Z,1.30
2022-10-14T16:43:39.704Z,1.58
2022-10-14T16:46:10.416Z,1.20
2022-10-14T16:48:40.178Z,1.20
2022-10-14T16:51:07.524Z,1.60
2022-10-14T16:53:48.850Z,1.10
2022-10-14T16:56:36.761Z,1.83
2022-10-14T16:59:05.282Z,1.30
2022-10-14T17:01:32.418Z,1.30
2022-10-14T17:03:59.323Z,1.15
2022-10-14T17:06:26.615Z,1.52
2022-10-14T17:08:53.846Z,1.77
2022-10-14T17:11:21.084Z,1.30
2022-10-14T17:13:51.943Z,1.50
2022-10-14T17:16:18.756Z,1.23
2022-10-14T17:18:45.767Z,1.23
2022-10-14T17:21:13.710Z,1.30
2022-10-14T17:23:42.467Z,0.90
2022-10-14T17:26:13.532Z,1.40
2022-10-14T17:28:41.426Z,1.42
2022-10-14T17:31:17.436Z,2.00
2022-10-14T17:33:44.205Z,1.35
2022-10-14T17:36:20.080Z,1.70
2022-10-14T17:38:48.380Z,1.38
2022-10-14T17:41:15.512Z,1.25
2022-10-14T17:43:42.386Z,1.23
2022-10-14T17:46:13.948Z,1.20
2022-10-14T17:48:42.796Z,1.60
2022-10-14T17:51:13.156Z,1.57
2022-10-14T17:53:40.524Z,1.25
2022-10-14T17:56:11.865Z,1.13
2022-10-14T17:58:39.235Z,1.25
2022-10-14T18:01:11.542Z,0.77
2022-10-14T18:03:42.589Z,1.33
2022-10-14T18:06:10.470Z,2.22
2022-10-14T18:08:37.462Z,2.05
2022-10-14T18:11:10.775Z,1.85
2022-10-14T18:16:13.429Z,1.75
2022-10-14T18:18:42.102Z,2.13
2022-10-14T18:21:10.302Z,1.52
2022-10-14T18:23:39.304Z,1.58
2022-10-14T18:26:14.670Z,1.50
2022-10-14T18:28:43.761Z,0.82
2022-10-14T18:31:18.252Z,1.80
2022-10-14T18:33:46.161Z,1.20
2022-10-14T18:36:16.017Z,1.33
2022-10-14T18:41:14.447Z,1.30
2022-10-14T18:43:41.739Z,1.50
2022-10-14T18:46:19.535Z,1.90
2022-10-14T18:48:52.164Z,1.42
2022-10-14T18:51:25.748Z,1.55
2022-10-14T18:53:55.250Z,1.80
2022-10-14T18:56:28.114Z,1.55
2022-10-14T18:59:01.083Z,1.75
2022-10-14T19:01:29.353Z,1.70
2022-10-14T19:03:56.668Z,2.15
2022-10-14T19:06:24.225Z,3.03
2022-10-14T19:08:52.182Z,2.40
2022-10-14T19:11:21.698Z,3.53
2022-10-14T19:13:50.451Z,2.17
2022-10-14T19:16:19.941Z,1.73
2022-10-14T19:18:47.416Z,1.83
2022-10-14T19:21:16.090Z,2.25
2022-10-14T19:23:43.975Z,1.88
2022-10-14T19:26:22.030Z,1.90
2022-10-14T19:28:50.096Z,2.20
2022-10-14T19:31:20.889Z,2.85
2022-10-14T19:33:48.132Z,2.13
2022-10-14T19:36:16.783Z,2.47
2022-10-14T19:38:51.165Z,4.03
2022-10-14T19:41:18.748Z,4.00
2022-10-14T19:43:45.559Z,6.32
2022-10-14T19:46:14.058Z,5.00
2022-10-14T19:48:41.877Z,3.28
2022-10-14T19:51:11.707Z,3.17
2022-10-14T19:53:39.248Z,3.22
2022-10-14T19:56:11.493Z,2.75
2022-10-14T19:58:42.322Z,3.67
2022-10-14T20:01:14.192Z,2.53
2022-10-14T20:03:41.847Z,2.95
2022-10-14T20:06:10.224Z,2.70
2022-10-14T20:08:38.188Z,4.53
2022-10-14T20:11:07.628Z,3.47
2022-10-14T20:13:34.776Z,2.67
2022-10-14T20:16:02.511Z,4.18
2022-10-14T20:18:29.932Z,3.50
2022-10-14T20:20:57.383Z,4.07
2022-10-14T20:23:25.420Z,4.88
2022-10-14T20:25:52.335Z,3.92
2022-10-14T20:28:19.902Z,3.65
2022-10-14T20:30:47.551Z,3.42
2022-10-14T20:33:14.865Z,58.97
2022-10-14T20:35:41.681Z,16.63
2022-10-14T20:38:08.676Z,12.52
2022-10-14T20:40:36.136Z,7.47
2022-10-14T20:43:04.019Z,7.65
2022-10-14T20:45:30.999Z,7.35
2022-10-14T20:47:57.757Z,7.13
2022-10-14T20:50:24.532Z,6.13
2022-10-14T20:52:51.350Z,7.45
2022-10-14T20:55:18.087Z,8.82
2022-10-14T20:57:44.809Z,9.68
2022-10-14T21:00:12.185Z,7.28
2022-10-14T21:02:39.112Z,5.60
2022-10-14T21:05:06.316Z,6.63
2022-10-14T21:07:33.160Z,7.00
2022-10-14T21:09:59.851Z,6.05
2022-10-14T21:12:26.704Z,6.03
2022-10-14T21:14:53.594Z,5.68
2022-10-14T21:17:20.288Z,5.80
2022-10-14T21:19:49.064Z,5.40
2022-10-14T21:22:15.902Z,5.25
2022-10-14T21:24:42.786Z,6.82
2022-10-14T21:27:09.562Z,5.28
2022-10-14T21:29:36.383Z,4.35
2022-10-14T21:32:05.216Z,4.47
2022-10-14T21:34:31.954Z,4.18
2022-10-14T21:36:58.813Z,4.40
2022-10-14T21:39:25.603Z,3.63
2022-10-14T21:41:52.753Z,4.60
2022-10-14T21:44:21.202Z,4.90
2022-10-14T21:46:48.970Z,5.00
2022-10-14T21:49:16.090Z,4.18
2022-10-14T21:51:42.970Z,6.68
2022-10-14T21:54:12.360Z,5.32
2022-10-14T21:56:40.737Z,3.85
2022-10-14T21:59:07.803Z,4.07
2022-10-14T22:01:34.922Z,3.33
2022-10-14T22:04:04.900Z,3.17
2022-10-14T22:11:33.059Z,3.50
2022-10-14T22:14:02.854Z,3.72
2022-10-14T22:16:30.497Z,4.03
2022-10-14T22:19:01.097Z,3.83
2022-10-14T22:21:30.619Z,3.60
2022-10-14T22:23:58.975Z,3.47
2022-10-14T22:26:27.465Z,3.38
2022-10-14T22:29:02.389Z,4.60
2022-10-14T22:31:30.518Z,3.83
2022-10-14T22:33:58.652Z,4.47
2022-10-14T22:36:30.678Z,4.93
2022-10-14T22:38:58.926Z,4.47
2022-10-14T22:41:27.958Z,5.20
2022-10-14T22:43:59.493Z,9.82
2022-10-14T22:46:28.562Z,10.93
2022-10-14T22:48:56.923Z,6.03
2022-10-14T22:53:54.748Z,5.85
2022-10-14T22:56:25.582Z,6.97
2022-10-14T22:58:57.321Z,5.80
2022-10-14T23:01:26.123Z,4.90
2022-10-14T23:03:52.827Z,5.10
2022-10-14T23:06:19.611Z,5.70
2022-10-14T23:08:46.393Z,5.38
2022-10-14T23:11:16.098Z,5.47
2022-10-14T23:13:43.560Z,5.35
2022-10-14T23:16:16.971Z,4.47
2022-10-14T23:18:44.790Z,5.57
2022-10-14T23:21:15.502Z,6.05
2022-10-14T23:23:42.764Z,5.25
2022-10-14T23:26:11.998Z,5.13
2022-10-14T23:28:39.119Z,3.95
2022-10-14T23:31:15.081Z,4.50
2022-10-14T23:33:42.290Z,4.43
2022-10-14T23:36:11.388Z,7.07
2022-10-14T23:38:39.975Z,4.90
2022-10-14T23:41:08.146Z,4.63
2022-10-14T23:43:35.289Z,4.63
2022-10-14T23:46:02.721Z,4.47
2022-10-14T23:48:30.014Z,3.72
2022-10-14T23:50:57.357Z,4.68
2022-10-14T23:53:26.611Z,4.47
2022-10-14T23:55:54.729Z,4.45
2022-10-14T23:58:21.915Z,4.47
